Time;durP1;ratioP1;P1;durP2;ratioP2;P2;SDS_P1;SDS_P2;PMS_P1;PMS_P2;Temp;Humidity;BMP_temperature;BMP_pressure;BME280_temperature;BME280_humidity;BME280_pressure;Samples;Min_cycle;Max_cycle;Signal;HPM_P1;HPM_P2
2022/03/24 00:00:23;;;;;;;0.40;0.40;;;5.50;84.50;;;;;;5037039;28;20488;-64
2022/03/24 00:03:10;;;;;;;0.50;0.50;;;5.50;84.70;;;;;;5037143;28;20445;-65
2022/03/24 00:05:57;;;;;;;28.70;22.17;;;5.40;85.50;;;;;;5035552;28;20571;-64
2022/03/24 00:08:44;;;;;;;0.50;0.50;;;5.30;86.50;;;;;;5036254;28;20467;-65
2022/03/24 00:11:31;;;;;;;0.50;0.50;;;5.30;86.20;;;;;;5036557;28;20441;-65
2022/03/24 00:14:18;;;;;;;0.80;0.80;;;5.30;86.90;;;;;;5037080;28;20429;-65
2022/03/24 00:17:07;;;;;;;3.67;3.47;;;5.20;87.10;;;;;;5036440;28;20518;-64
2022/03/24 00:19:54;;;;;;;0.50;0.50;;;5.20;87.60;;;;;;5035518;28;21003;-65
2022/03/24 00:22:41;;;;;;;0.50;0.50;;;5.10;88.40;;;;;;5034772;28;20464;-65
2022/03/24 00:25:28;;;;;;;0.50;0.50;;;5.00;88.90;;;;;;5035367;28;20436;-65
2022/03/24 00:28:14;;;;;;;1.27;1.20;;;4.90;89.40;;;;;;5036124;28;20501;-65
2022/03/24 00:31:01;;;;;;;0.50;0.50;;;4.90;89.90;;;;;;5036907;28;20796;-65
2022/03/24 00:33:50;;;;;;;0.50;0.50;;;4.80;90.30;;;;;;5036217;28;20811;-64
2022/03/24 00:36:37;;;;;;;0.53;0.53;;;4.80;90.50;;;;;;5035363;28;20463;-65
2022/03/24 00:39:24;;;;;;;0.50;0.50;;;4.80;90.80;;;;;;5034960;28;20540;-65
2022/03/24 00:42:12;;;;;;;0.50;0.50;;;4.70;90.80;;;;;;5035842;28;20961;-65
2022/03/24 00:44:59;;;;;;;0.80;0.80;;;4.70;91.10;;;;;;5035768;28;20425;-65
2022/03/24 00:47:46;;;;;;;0.50;0.50;;;4.60;91.30;;;;;;5034944;28;20422;-65
2022/03/24 00:50:35;;;;;;;0.90;0.90;;;4.60;91.70;;;;;;5034895;28;20789;-65
2022/03/24 00:53:23;;;;;;;0.50;0.50;;;4.60;91.80;;;;;;5035726;28;20976;-65
2022/03/24 00:56:11;;;;;;;0.50;0.50;;;4.50;91.90;;;;;;5033573;28;20965;-65
2022/03/24 00:58:58;;;;;;;0.50;0.50;;;4.50;92.20;;;;;;5034905;28;20465;-65
2022/03/24 01:01:45;;;;;;;0.93;0.93;;;4.40;92.40;;;;;;5035005;28;20471;-65
2022/03/24 01:04:32;;;;;;;0.50;0.50;;;4.40;92.60;;;;;;5036220;28;20425;-65
2022/03/24 01:07:20;;;;;;;0.50;0.50;;;4.40;93.00;;;;;;5035772;28;20520;-65
2022/03/24 01:10:08;;;;;;;0.50;0.50;;;4.40;93.30;;;;;;5034306;28;20425;-65
2022/03/24 01:12:59;;;;;;;0.90;0.90;;;4.30;93.40;;;;;;5034170;28;20453;-65
2022/03/24 01:15:46;;;;;;;1.60;1.60;;;4.20;93.70;;;;;;5033540;28;20422;-65
2022/03/24 01:18:34;;;;;;;0.50;0.50;;;4.20;93.90;;;;;;5035441;28;20866;-66
2022/03/24 01:21:21;;;;;;;0.50;0.50;;;4.10;94.20;;;;;;5032813;28;20418;-66
2022/03/24 01:24:10;;;;;;;0.50;0.50;;;4.10;94.70;;;;;;5034979;28;20427;-64
2022/03/24 01:26:57;;;;;;;0.50;0.50;;;4.00;94.90;;;;;;5034195;28;20930;-65
2022/03/24 01:29:44;;;;;;;0.50;0.50;;;4.00;95.40;;;;;;5033850;28;20424;-64
2022/03/24 01:32:31;;;;;;;0.47;0.47;;;3.90;95.90;;;;;;5034897;28;20437;-66
2022/03/24 01:35:18;;;;;;;0.60;0.60;;;3.90;96.20;;;;;;5032699;28;20435;-65
2022/03/24 01:38:05;;;;;;;0.50;0.50;;;3.90;96.70;;;;;;5032067;28;20417;-65
2022/03/24 01:40:53;;;;;;;1.33;1.17;;;3.70;96.90;;;;;;5034835;28;20829;-65
2022/03/24 01:43:42;;;;;;;0.50;0.50;;;3.70;97.30;;;;;;5034754;28;20422;-66
2022/03/24 01:46:29;;;;;;;0.50;0.50;;;3.70;97.70;;;;;;5033179;28;20926;-65
2022/03/24 01:49:17;;;;;;;0.70;0.70;;;3.70;98.10;;;;;;5035531;28;20515;-65
2022/03/24 01:52:08;;;;;;;0.50;0.50;;;3.70;98.30;;;;;;5032799;28;20442;-65
2022/03/24 01:54:58;;;;;;;0.50;0.50;;;3.70;98.80;;;;;;5034428;28;20795;-65
2022/03/24 01:57:47;;;;;;;0.50;0.50;;;3.70;99.30;;;;;;5034336;28;20744;-64
2022/03/24 02:00:35;;;;;;;2.87;2.77;;;3.60;99.90;;;;;;5033514;28;20461;-65
2022/03/24 02:03:23;;;;;;;0.50;0.50;;;3.60;99.90;;;;;;5034048;28;20984;-65
2022/03/24 02:06:09;;;;;;;0.50;0.50;;;3.50;99.90;;;;;;5034748;28;20452;-65
2022/03/24 02:08:57;;;;;;;0.50;0.50;;;3.50;99.90;;;;;;5033446;28;20516;-65
2022/03/24 02:11:44;;;;;;;0.50;0.50;;;3.50;99.90;;;;;;5033052;28;20446;-65
2022/03/24 02:14:32;;;;;;;0.50;0.50;;;3.40;99.90;;;;;;5033224;28;20425;-66
2022/03/24 02:17:20;;;;;;;0.50;0.50;;;3.40;99.90;;;;;;5034406;28;20476;-66
2022/03/24 02:20:09;;;;;;;0.50;0.50;;;3.30;99.90;;;;;;5033958;28;20559;-65
2022/03/24 02:22:57;;;;;;;0.50;0.50;;;3.30;99.90;;;;;;5032439;28;20468;-65
2022/03/24 02:25:46;;;;;;;0.50;0.50;;;3.30;99.90;;;;;;5033342;28;20429;-65
2022/03/24 02:28:32;;;;;;;1.03;1.03;;;3.30;99.90;;;;;;5034038;28;20918;-64
2022/03/24 02:31:20;;;;;;;0.50;0.50;;;3.20;99.90;;;;;;5032280;28;20421;-64
2022/03/24 02:37:15;;;;;;;0.50;0.50;;;3.10;99.90;;;;;;5032153;28;20449;-65
2022/03/24 02:40:04;;;;;;;1.87;1.77;;;3.10;99.90;;;;;;5034016;28;20465;-66
2022/03/24 02:42:51;;;;;;;0.50;0.50;;;3.10;99.90;;;;;;5033783;28;20445;-65
2022/03/24 02:45:38;;;;;;;0.50;0.50;;;3.00;99.90;;;;;;5050173;28;20467;-65
2022/03/24 02:48:25;;;;;;;3.30;3.20;;;3.00;99.90;;;;;;5049800;28;20430;-65
2022/03/24 02:51:12;;;;;;;0.50;0.50;;;3.00;99.90;;;;;;5049227;28;20413;-65
2022/03/24 02:53:59;;;;;;;0.50;0.50;;;2.90;99.90;;;;;;5052426;28;20426;-65
2022/03/24 02:56:48;;;;;;;0.50;0.50;;;2.90;99.90;;;;;;5050690;28;20433;-64
2022/03/24 02:59:35;;;;;;;0.50;0.50;;;2.90;99.90;;;;;;5056528;28;20464;-65
2022/03/24 03:02:22;;;;;;;0.50;0.50;;;2.90;99.90;;;;;;5053844;28;20449;-65
2022/03/24 03:05:09;;;;;;;0.50;0.50;;;2.90;99.90;;;;;;5052995;28;20953;-65
2022/03/24 03:07:56;;;;;;;0.50;0.50;;;2.90;99.90;;;;;;5054015;28;20429;-65
2022/03/24 03:10:43;;;;;;;0.50;0.50;;;2.80;99.90;;;;;;5052186;28;20434;-64
2022/03/24 03:13:31;;;;;;;0.50;0.50;;;2.80;99.90;;;;;;5049766;28;20484;-64
2022/03/24 03:16:18;;;;;;;0.50;0.50;;;2.70;99.90;;;;;;5033167;28;20433;-64
2022/03/24 03:19:08;;;;;;;0.50;0.50;;;2.60;99.90;;;;;;5031910;28;20425;-66
2022/03/24 03:21:55;;;;;;;0.50;0.50;;;2.60;99.90;;;;;;5031561;28;20463;-65
2022/03/24 03:24:42;;;;;;;0.50;0.50;;;2.50;99.90;;;;;;5032094;28;20440;-65
2022/03/24 03:27:31;;;;;;;0.50;0.50;;;2.40;99.90;;;;;;5035842;28;20430;-65
2022/03/24 03:30:20;;;;;;;0.50;0.50;;;2.30;99.90;;;;;;5035309;28;20786;-65
2022/03/24 03:33:07;;;;;;;4.50;3.53;;;2.30;99.90;;;;;;5035974;28;20914;-64
2022/03/24 03:35:54;;;;;;;0.50;0.50;;;2.30;99.90;;;;;;5036386;28;20417;-65
2022/03/24 03:38:41;;;;;;;0.50;0.50;;;2.20;99.90;;;;;;5035577;28;20492;-65
2022/03/24 03:41:29;;;;;;;0.50;0.50;;;2.10;99.90;;;;;;5034955;28;20851;-64
2022/03/24 03:44:15;;;;;;;0.60;0.60;;;2.10;99.90;;;;;;5035728;28;20433;-64
2022/03/24 03:47:05;;;;;;;0.50;0.50;;;2.00;99.90;;;;;;5035294;28;20433;-65
2022/03/24 03:49:52;;;;;;;0.50;0.50;;;1.90;99.90;;;;;;5036420;28;20418;-65
2022/03/24 03:52:39;;;;;;;0.50;0.50;;;1.90;99.90;;;;;;5034844;28;20449;-65
2022/03/24 03:55:26;;;;;;;0.50;0.50;;;1.90;99.90;;;;;;5035942;28;20433;-65
2022/03/24 03:58:14;;;;;;;0.50;0.50;;;1.90;99.90;;;;;;5035400;28;20426;-64
2022/03/24 04:01:01;;;;;;;1.70;1.60;;;1.80;99.90;;;;;;5035488;28;20472;-64
2022/03/24 04:03:49;;;;;;;1.57;1.47;;;1.90;99.90;;;;;;5035943;28;20428;-65
2022/03/24 04:06:36;;;;;;;0.50;0.50;;;1.80;99.90;;;;;;5035642;28;20945;-65
2022/03/24 04:09:23;;;;;;;1.90;1.80;;;1.80;99.90;;;;;;5035252;28;20429;-64
2022/03/24 04:12:11;;;;;;;0.50;0.50;;;1.80;99.90;;;;;;5035734;28;20448;-65
2022/03/24 04:14:57;;;;;;;0.50;0.50;;;1.80;99.90;;;;;;5035651;28;20418;-65
2022/03/24 04:17:45;;;;;;;0.50;0.50;;;1.80;99.90;;;;;;5035638;28;20964;-65
2022/03/24 04:20:34;;;;;;;13.27;12.23;;;1.80;99.90;;;;;;5035353;28;20463;-64
2022/03/24 04:23:21;;;;;;;0.60;0.60;;;1.70;99.90;;;;;;5035180;28;20898;-64
2022/03/24 04:26:10;;;;;;;0.50;0.50;;;1.70;99.90;;;;;;5035168;28;20430;-65
2022/03/24 04:28:57;;;;;;;0.50;0.50;;;1.60;99.90;;;;;;5034926;28;20421;-65
2022/03/24 04:31:43;;;;;;;0.50;0.50;;;1.60;99.90;;;;;;5034631;28;20476;-65
2022/03/24 04:34:30;;;;;;;0.50;0.50;;;1.60;99.90;;;;;;5034375;28;20425;-65
2022/03/24 04:37:19;;;;;;;0.50;0.50;;;1.50;99.90;;;;;;5034349;28;20926;-65
2022/03/24 04:40:07;;;;;;;0.50;0.50;;;1.60;99.90;;;;;;5035792;28;20887;-65
2022/03/24 04:42:55;;;;;;;0.50;0.50;;;1.50;99.90;;;;;;5034734;28;20445;-66
2022/03/24 04:45:43;;;;;;;0.50;0.50;;;1.60;99.90;;;;;;5034745;28;20422;-65
2022/03/24 04:48:35;;;;;;;0.50;0.50;;;1.50;99.90;;;;;;5034955;28;20425;-64
2022/03/24 04:51:22;;;;;;;0.50;0.50;;;1.50;99.90;;;;;;5033846;28;20422;-64
2022/03/24 04:54:11;;;;;;;0.50;0.50;;;1.40;99.90;;;;;;5035026;28;20429;-65
2022/03/24 04:56:58;;;;;;;0.50;0.50;;;1.40;99.90;;;;;;5035033;28;20425;-65
2022/03/24 04:59:45;;;;;;;0.50;0.50;;;1.40;99.90;;;;;;5034017;28;20421;-64
2022/03/24 05:02:32;;;;;;;0.50;0.50;;;1.40;99.90;;;;;;5033864;28;20445;-65
2022/03/24 05:05:19;;;;;;;0.50;0.50;;;1.40;99.90;;;;;;5034998;28;20430;-65
2022/03/24 05:08:06;;;;;;;0.50;0.50;;;1.30;99.90;;;;;;5034316;28;20815;-65
2022/03/24 05:10:54;;;;;;;0.50;0.50;;;1.40;99.90;;;;;;5034523;28;20835;-64
2022/03/24 05:13:41;;;;;;;0.50;0.50;;;1.40;99.90;;;;;;5034690;28;20934;-67
2022/03/24 05:16:29;;;;;;;0.50;0.50;;;1.40;99.90;;;;;;5034349;28;20429;-65
2022/03/24 05:19:16;;;;;;;0.50;0.50;;;1.40;99.90;;;;;;5034989;28;20823;-65
2022/03/24 05:22:03;;;;;;;0.50;0.50;;;1.40;99.90;;;;;;5033381;28;20480;-65
2022/03/24 05:24:50;;;;;;;0.50;0.50;;;1.50;99.90;;;;;;5034131;28;20436;-66
2022/03/24 05:27:38;;;;;;;0.50;0.50;;;1.50;99.90;;;;;;5033706;28;20425;-65
2022/03/24 05:30:26;;;;;;;0.50;0.50;;;1.60;99.90;;;;;;5034743;28;20845;-65
2022/03/24 05:33:13;;;;;;;0.50;0.50;;;1.60;99.90;;;;;;5034200;28;20449;-65
2022/03/24 05:36:00;;;;;;;0.50;0.50;;;1.70;99.90;;;;;;5033483;28;20429;-65
2022/03/24 05:38:47;;;;;;;1.07;1.07;;;1.80;99.90;;;;;;5033368;28;20434;-65
2022/03/24 05:41:34;;;;;;;0.50;0.50;;;1.80;99.90;;;;;;5032525;28;20849;-65
2022/03/24 05:44:22;;;;;;;0.50;0.50;;;1.80;99.90;;;;;;5034340;28;20806;-65
2022/03/24 05:47:09;;;;;;;0.50;0.50;;;1.80;99.90;;;;;;5033132;28;20939;-65
2022/03/24 05:49:56;;;;;;;0.50;0.50;;;1.90;99.90;;;;;;5032685;28;20422;-66
2022/03/24 05:52:43;;;;;;;0.50;0.50;;;1.90;99.90;;;;;;5033570;28;20961;-65
2022/03/24 05:55:30;;;;;;;0.50;0.50;;;1.90;99.90;;;;;;5033058;28;20425;-65
2022/03/24 05:58:17;;;;;;;0.50;0.50;;;2.00;99.90;;;;;;5033458;28;20422;-65
2022/03/24 06:01:05;;;;;;;0.83;0.83;;;2.00;99.90;;;;;;5033481;28;21103;-65
2022/03/24 06:03:52;;;;;;;0.50;0.50;;;2.10;99.90;;;;;;5033401;28;20432;-65
2022/03/24 06:06:39;;;;;;;0.50;0.50;;;2.10;99.90;;;;;;5033027;28;20425;-65
2022/03/24 06:09:27;;;;;;;0.50;0.50;;;2.20;99.90;;;;;;5032943;28;20426;-65
2022/03/24 06:12:15;;;;;;;1.67;1.57;;;2.30;99.90;;;;;;5032169;28;20440;-65
2022/03/24 06:15:02;;;;;;;0.50;0.50;;;2.40;99.90;;;;;;5032988;28;20818;-65
2022/03/24 06:17:51;;;;;;;0.53;0.53;;;2.40;99.90;;;;;;5032558;28;20956;-66
2022/03/24 06:20:38;;;;;;;0.50;0.50;;;2.50;99.90;;;;;;5033555;28;20465;-65
2022/03/24 06:23:25;;;;;;;0.50;0.50;;;2.60;99.90;;;;;;5032947;28;20468;-65
2022/03/24 06:26:12;;;;;;;0.50;0.50;;;2.70;99.90;;;;;;5044925;28;20421;-65
2022/03/24 06:29:01;;;;;;;0.50;0.50;;;2.80;99.90;;;;;;5036143;28;20422;-65
2022/03/24 06:31:48;;;;;;;0.50;0.50;;;2.90;99.90;;;;;;5032708;28;20544;-65
2022/03/24 06:34:36;;;;;;;0.50;0.50;;;3.00;99.90;;;;;;5034621;28;20418;-66
2022/03/24 06:37:23;;;;;;;0.50;0.50;;;3.10;99.90;;;;;;5032580;28;20436;-65
2022/03/24 06:40:12;;;;;;;0.60;0.60;;;3.20;99.90;;;;;;5030580;28;20433;-66
2022/03/24 06:42:59;;;;;;;0.50;0.50;;;3.20;99.90;;;;;;5034716;28;20453;-64
2022/03/24 06:45:46;;;;;;;0.50;0.50;;;3.30;99.90;;;;;;5036965;28;20433;-64
2022/03/24 06:48:33;;;;;;;0.50;0.50;;;3.40;99.90;;;;;;5037112;28;20440;-66
2022/03/24 06:51:22;;;;;;;0.60;0.60;;;3.60;99.90;;;;;;5033656;28;20426;-66
2022/03/24 06:54:10;;;;;;;0.80;0.80;;;3.60;99.90;;;;;;5035253;28;20434;-67
2022/03/24 06:56:57;;;;;;;0.50;0.50;;;3.60;99.90;;;;;;5034010;28;20433;-66
2022/03/24 06:59:44;;;;;;;0.50;0.50;;;3.70;99.90;;;;;;5034498;28;20422;-67
2022/03/24 07:02:31;;;;;;;0.67;0.67;;;3.80;99.90;;;;;;5030792;28;20481;-66
2022/03/24 07:05:18;;;;;;;0.50;0.50;;;4.00;99.90;;;;;;5033347;28;20491;-67
2022/03/24 07:08:08;;;;;;;0.40;0.40;;;4.10;99.90;;;;;;5033750;28;20838;-67
2022/03/24 07:10:55;;;;;;;0.50;0.50;;;4.20;99.90;;;;;;5033174;28;20428;-67
2022/03/24 07:13:42;;;;;;;0.50;0.50;;;4.30;99.90;;;;;;5033069;28;20432;-66
2022/03/24 07:16:29;;;;;;;0.50;0.50;;;4.40;99.90;;;;;;5032929;28;20421;-66
2022/03/24 07:19:16;;;;;;;0.50;0.50;;;4.50;99.90;;;;;;5028390;28;20475;-66
2022/03/24 07:22:03;;;;;;;0.50;0.50;;;4.60;99.90;;;;;;5048166;28;20468;-66
2022/03/24 07:24:51;;;;;;;0.50;0.50;;;4.70;99.90;;;;;;5042256;28;20450;-66
2022/03/24 07:27:39;;;;;;;0.50;0.50;;;4.80;99.90;;;;;;5040526;28;20440;-66
2022/03/24 07:30:26;;;;;;;0.50;0.50;;;5.00;99.90;;;;;;5047958;28;20421;-67
2022/03/24 07:33:14;;;;;;;0.50;0.50;;;5.10;99.90;;;;;;5036441;28;20445;-66
2022/03/24 07:36:01;;;;;;;0.50;0.50;;;5.20;99.90;;;;;;5032775;28;20615;-66
2022/03/24 07:38:49;;;;;;;0.80;0.80;;;5.30;99.90;;;;;;5026963;28;20432;-66
2022/03/24 07:41:38;;;;;;;0.50;0.50;;;5.40;99.90;;;;;;5038545;28;20535;-67
2022/03/24 07:44:25;;;;;;;0.50;0.50;;;5.60;99.90;;;;;;5051027;28;20426;-65
2022/03/24 07:47:12;;;;;;;0.50;0.50;;;5.70;99.90;;;;;;5041353;28;20485;-66
2022/03/24 07:49:59;;;;;;;0.50;0.50;;;5.80;99.90;;;;;;5037566;28;20471;-66
2022/03/24 07:52:46;;;;;;;0.50;0.50;;;5.90;99.90;;;;;;5026342;28;20466;-66
2022/03/24 07:55:38;;;;;;;0.50;0.50;;;6.00;99.90;;;;;;5041009;28;20855;-66
2022/03/24 07:58:26;;;;;;;0.50;0.50;;;6.10;99.90;;;;;;5043759;28;20448;-66
2022/03/24 08:01:14;;;;;;;0.70;0.70;;;6.20;99.90;;;;;;5041820;28;20468;-66
2022/03/24 08:04:02;;;;;;;0.50;0.50;;;6.30;99.90;;;;;;5037120;28;20549;-67
2022/03/24 08:06:49;;;;;;;0.50;0.50;;;6.40;99.90;;;;;;5025258;28;20428;-68
2022/03/24 08:09:36;;;;;;;0.50;0.50;;;6.50;99.90;;;;;;5039008;28;20440;-67
2022/03/24 08:12:23;;;;;;;0.40;0.40;;;6.60;99.90;;;;;;5035321;28;20448;-66
2022/03/24 08:15:12;;;;;;;0.50;0.50;;;6.70;99.90;;;;;;5047132;28;20434;-67
2022/03/24 08:17:59;;;;;;;0.50;0.50;;;6.80;99.90;;;;;;5034257;28;20457;-67
2022/03/24 08:20:48;;;;;;;0.77;0.77;;;6.90;99.90;;;;;;5028602;28;20429;-67
2022/03/24 08:23:35;;;;;;;0.50;0.50;;;7.00;99.90;;;;;;5041992;28;20436;-67
2022/03/24 08:26:22;;;;;;;0.50;0.50;;;7.20;99.90;;;;;;5037753;28;20443;-67
2022/03/24 08:29:10;;;;;;;0.50;0.50;;;7.10;99.90;;;;;;5044623;28;20948;-67
2022/03/24 08:31:58;;;;;;;0.50;0.50;;;7.30;99.90;;;;;;5049538;28;20816;-67
2022/03/24 08:34:45;;;;;;;0.70;0.70;;;7.40;99.90;;;;;;5039255;28;20429;-66
2022/03/24 08:37:32;;;;;;;0.57;0.57;;;7.50;99.90;;;;;;5030345;28;20575;-67
2022/03/24 08:40:19;;;;;;;0.50;0.50;;;7.60;99.90;;;;;;5035110;28;20525;-67
2022/03/24 08:43:07;;;;;;;0.50;0.50;;;7.70;99.90;;;;;;5045164;28;20969;-67
2022/03/24 08:45:54;;;;;;;0.50;0.50;;;7.80;99.90;;;;;;5046508;28;20435;-67
2022/03/24 08:48:42;;;;;;;0.50;0.50;;;7.90;99.90;;;;;;5024922;28;20424;-66
2022/03/24 08:51:30;;;;;;;0.50;0.50;;;7.90;99.90;;;;;;5040111;28;20445;-68
2022/03/24 08:54:17;;;;;;;2.27;2.10;;;8.00;99.90;;;;;;5051569;28;20428;-67
2022/03/24 08:57:04;;;;;;;1.03;1.03;;;8.10;99.90;;;;;;5033925;28;20465;-68
2022/03/24 08:59:51;;;;;;;1.00;1.00;;;8.20;99.90;;;;;;5039493;28;20938;-67
2022/03/24 09:02:39;;;;;;;0.47;0.47;;;8.20;99.90;;;;;;5034940;28;20481;-67
2022/03/24 09:05:27;;;;;;;0.50;0.50;;;8.40;99.90;;;;;;5034340;28;20946;-68
2022/03/24 09:08:14;;;;;;;2.97;1.70;;;8.50;99.90;;;;;;5049329;28;20431;-68
2022/03/24 09:11:01;;;;;;;1.47;1.37;;;8.60;99.90;;;;;;5041355;28;20421;-68
2022/03/24 09:13:48;;;;;;;0.50;0.50;;;8.60;99.90;;;;;;5039063;28;20425;-68
2022/03/24 09:16:35;;;;;;;0.40;0.40;;;8.80;99.90;;;;;;5023580;28;20424;-69
2022/03/24 09:19:23;;;;;;;0.63;0.63;;;8.90;99.90;;;;;;5036860;28;21218;-67
2022/03/24 09:22:12;;;;;;;0.47;0.47;;;9.00;99.90;;;;;;5035091;28;21028;-67
2022/03/24 09:24:59;;;;;;;0.50;0.50;;;9.10;99.90;;;;;;5040502;28;20428;-66
2022/03/24 09:27:46;;;;;;;0.50;0.50;;;9.20;99.90;;;;;;5039265;28;20429;-68
2022/03/24 09:30:33;;;;;;;0.50;0.50;;;9.20;99.90;;;;;;5022267;28;20858;-68
2022/03/24 09:33:21;;;;;;;0.50;0.50;;;9.40;99.90;;;;;;5025651;28;22432;-67
2022/03/24 09:36:08;;;;;;;1.23;1.13;;;9.50;99.90;;;;;;5035000;28;20434;-67
2022/03/24 09:38:56;;;;;;;0.90;0.90;;;9.60;99.90;;;;;;5038330;28;20440;-66
2022/03/24 09:41:47;;;;;;;0.50;0.50;;;9.70;99.90;;;;;;5034757;28;20878;-68
2022/03/24 09:44:35;;;;;;;0.50;0.50;;;9.80;99.90;;;;;;5038095;28;20450;-67
2022/03/24 09:47:26;;;;;;;0.50;0.50;;;9.90;99.90;;;;;;5039166;28;20624;-68
2022/03/24 09:50:18;;;;;;;0.50;0.50;;;10.00;99.90;;;;;;5029945;28;21130;-66
2022/03/24 09:53:07;;;;;;;0.50;0.50;;;10.10;99.90;;;;;;5031706;28;20460;-70
2022/03/24 09:56:02;;;;;;;0.57;0.57;;;10.20;99.90;;;;;;5032283;28;20528;-70
2022/03/24 09:58:55;;;;;;;0.50;0.50;;;10.30;99.90;;;;;;5027285;28;20926;-69
2022/03/24 10:01:44;;;;;;;0.50;0.50;;;10.30;99.90;;;;;;5026912;28;20473;-69
2022/03/24 10:04:45;;;;;;;0.40;0.40;;;10.40;99.90;;;;;;5036827;28;20424;-69
2022/03/24 10:07:45;;;;;;;1.43;1.33;;;10.50;99.50;;;;;;5039344;28;21089;-71
2022/03/24 10:10:34;;;;;;;0.50;0.50;;;10.60;98.90;;;;;;5037506;28;20599;-70
2022/03/24 10:13:42;;;;;;;0.50;0.50;;;10.60;97.30;;;;;;5040750;28;21012;-69
2022/03/24 10:16:44;;;;;;;0.50;0.50;;;10.60;96.70;;;;;;5020826;28;20991;-70
2022/03/24 10:19:51;;;;;;;0.60;0.60;;;10.70;95.90;;;;;;5037062;28;20812;-68
2022/03/24 10:22:52;;;;;;;1.33;1.33;;;10.80;95.30;;;;;;5016515;28;20480;-68
2022/03/24 10:25:46;;;;;;;0.40;0.40;;;10.90;94.80;;;;;;5031706;28;20425;-68
2022/03/24 10:28:40;;;;;;;0.50;0.50;;;10.90;94.30;;;;;;5033983;28;20436;-68
2022/03/24 10:31:39;;;;;;;0.50;0.50;;;11.00;93.30;;;;;;5032488;28;20467;-69
2022/03/24 10:34:46;;;;;;;0.50;0.50;;;11.10;92.70;;;;;;5044847;28;20433;-69
2022/03/24 10:37:52;;;;;;;0.40;0.40;;;11.20;92.70;;;;;;5028214;28;20836;-69
2022/03/24 10:40:40;;;;;;;0.70;0.70;;;11.30;91.80;;;;;;5030897;28;20794;-68
2022/03/24 10:43:36;;;;;;;0.40;0.40;;;11.40;91.60;;;;;;5025610;28;20466;-70
2022/03/24 10:46:32;;;;;;;0.50;0.50;;;11.50;91.50;;;;;;5028499;28;20506;-69
2022/03/24 10:49:26;;;;;;;0.50;0.50;;;11.60;91.50;;;;;;5043555;28;20429;-71
2022/03/24 10:52:21;;;;;;;0.40;0.40;;;11.60;91.10;;;;;;5036166;28;20985;-70
2022/03/24 10:55:08;;;;;;;0.40;0.40;;;11.80;90.20;;;;;;5045270;28;20930;-69
2022/03/24 10:57:58;;;;;;;0.83;0.83;;;11.90;89.90;;;;;;5034206;28;20441;-69
2022/03/24 11:00:55;;;;;;;7.43;7.13;;;12.00;88.90;;;;;;5025507;28;20431;-68
2022/03/24 11:03:47;;;;;;;0.40;0.40;;;12.00;86.10;;;;;;5034414;28;20487;-70
2022/03/24 11:06:47;;;;;;;0.40;0.40;;;12.10;84.60;;;;;;5029329;28;20428;-70
2022/03/24 11:09:36;;;;;;;0.63;0.63;;;12.20;84.00;;;;;;5031346;28;20452;-69
2022/03/24 11:12:36;;;;;;;0.40;0.40;;;12.20;83.70;;;;;;5026423;28;20443;-69
2022/03/24 11:15:27;;;;;;;0.57;0.57;;;12.30;84.30;;;;;;5033955;28;20941;-70
2022/03/24 11:18:24;;;;;;;0.40;0.40;;;12.30;83.60;;;;;;5049225;28;20873;-69
2022/03/24 11:21:24;;;;;;;2.70;1.53;;;12.40;83.30;;;;;;5030945;28;20941;-69
2022/03/24 11:24:14;;;;;;;0.80;0.80;;;12.40;82.40;;;;;;5033476;28;20517;-68
2022/03/24 11:27:06;;;;;;;0.40;0.40;;;12.50;81.40;;;;;;5045263;28;20532;-70
2022/03/24 11:29:54;;;;;;;1.03;1.03;;;12.60;80.60;;;;;;5036795;28;20474;-71
2022/03/24 11:32:44;;;;;;;0.97;0.97;;;12.70;79.60;;;;;;5043793;28;21171;-70
2022/03/24 11:35:35;;;;;;;0.50;0.50;;;12.70;79.90;;;;;;5032366;28;20464;-70
2022/03/24 11:38:26;;;;;;;0.40;0.40;;;12.80;78.30;;;;;;5034226;28;20444;-68
2022/03/24 11:41:21;;;;;;;0.87;0.87;;;12.80;76.80;;;;;;5029831;28;21037;-67
2022/03/24 11:44:15;;;;;;;0.50;0.50;;;12.90;76.10;;;;;;5048764;28;20428;-68
2022/03/24 11:47:13;;;;;;;0.40;0.40;;;12.90;74.70;;;;;;5041679;28;20510;-68
2022/03/24 11:50:09;;;;;;;0.40;0.40;;;12.90;75.10;;;;;;5039452;28;20443;-68
2022/03/24 11:53:09;;;;;;;0.50;0.50;;;12.90;75.20;;;;;;5031418;28;20453;-68
2022/03/24 11:56:18;;;;;;;0.50;0.50;;;13.00;75.00;;;;;;5040262;28;20823;-69
2022/03/24 11:59:21;;;;;;;0.40;0.40;;;13.10;75.40;;;;;;5032597;28;20436;-69
2022/03/24 12:02:18;;;;;;;0.40;0.40;;;13.20;74.20;;;;;;5038354;28;20471;-69
2022/03/24 12:05:06;;;;;;;0.50;0.50;;;13.40;73.70;;;;;;5046315;28;20433;-67
2022/03/24 12:08:04;;;;;;;0.40;0.40;;;13.40;72.70;;;;;;5030321;28;20421;-70
2022/03/24 12:10:51;;;;;;;0.50;0.50;;;13.50;72.00;;;;;;5028851;28;20433;-68
2022/03/24 12:13:39;;;;;;;0.60;0.60;;;13.50;71.00;;;;;;5050148;28;20424;-70
2022/03/24 12:16:28;;;;;;;0.43;0.43;;;13.50;70.90;;;;;;5038941;28;21008;-68
2022/03/24 12:19:47;;;;;;;0.40;0.40;;;13.60;69.50;;;;;;5044201;28;20820;-68
2022/03/24 12:22:38;;;;;;;1.37;1.23;;;13.60;69.20;;;;;;4963688;28;20490;-68
2022/03/24 12:25:31;;;;;;;0.40;0.40;;;13.70;69.00;;;;;;5035616;28;20441;-69
2022/03/24 12:28:25;;;;;;;0.80;0.80;;;13.80;67.50;;;;;;5032364;28;20429;-70
2022/03/24 12:31:15;;;;;;;0.40;0.40;;;13.80;68.00;;;;;;5034095;28;20202;-69
2022/03/24 12:34:13;;;;;;;0.40;0.40;;;13.90;67.90;;;;;;5031127;28;20206;-69
2022/03/24 12:37:00;;;;;;;1.17;1.10;;;13.90;65.70;;;;;;5029383;28;20429;-70
2022/03/24 12:39:47;;;;;;;0.40;0.40;;;14.00;66.70;;;;;;5048571;28;20202;-70
2022/03/24 12:42:40;;;;;;;0.50;0.50;;;14.00;66.80;;;;;;5024066;28;20230;-68
2022/03/24 12:45:39;;;;;;;0.40;0.40;;;14.00;67.00;;;;;;5042790;28;20519;-70
2022/03/24 12:48:39;;;;;;;0.40;0.40;;;14.20;66.30;;;;;;5021997;28;20435;-67
2022/03/24 12:51:28;;;;;;;0.50;0.50;;;14.30;63.60;;;;;;5043348;28;20206;-70
2022/03/24 12:54:19;;;;;;;0.40;0.40;;;14.30;64.20;;;;;;5050832;28;20425;-70
2022/03/24 12:57:25;;;;;;;0.60;0.60;;;14.40;64.70;;;;;;5041231;28;20440;-67
2022/03/24 13:00:19;;;;;;;0.40;0.40;;;14.60;64.10;;;;;;5035614;28;20209;-68
2022/03/24 13:03:06;;;;;;;0.50;0.50;;;14.80;63.00;;;;;;5040880;28;20226;-69
2022/03/24 13:05:58;;;;;;;8.93;6.63;;;15.00;60.50;;;;;;5040115;28;20214;-68
2022/03/24 13:09:13;;;;;;;0.40;0.40;;;15.30;61.00;;;;;;5028876;28;20581;-70
2022/03/24 13:12:05;;;;;;;1.13;1.13;;;15.60;61.50;;;;;;5030590;28;20739;-68
2022/03/24 13:14:52;;;;;;;0.40;0.40;;;16.00;60.10;;;;;;5030437;28;20248;-71
2022/03/24 13:17:39;;;;;;;0.50;0.50;;;16.50;57.40;;;;;;5029623;28;20206;-68
2022/03/24 13:20:28;;;;;;;0.43;0.43;;;17.40;57.50;;;;;;5030684;28;20205;-69
2022/03/24 13:23:17;;;;;;;0.40;0.40;;;18.30;55.30;;;;;;5030717;28;20250;-67
2022/03/24 13:26:06;;;;;;;0.40;0.40;;;19.70;54.60;;;;;;5032106;28;20207;-69
2022/03/24 13:28:55;;;;;;;2.05;1.58;;;21.40;53.40;;;;;;5029188;28;20289;-69
2022/03/24 13:31:42;;;;;;;0.40;0.40;;;22.60;47.80;;;;;;5035099;28;20698;-70
2022/03/24 13:34:30;;;;;;;0.50;0.50;;;23.30;47.60;;;;;;5019948;28;20209;-68
2022/03/24 13:37:19;;;;;;;3.38;3.25;;;23.90;46.10;;;;;;5041030;28;20216;-67
2022/03/24 13:40:11;;;;;;;0.40;0.40;;;24.40;43.80;;;;;;5028454;28;20206;-68
2022/03/24 13:42:59;;;;;;;0.40;0.40;;;25.20;42.80;;;;;;5029816;28;20222;-69
2022/03/24 13:45:48;;;;;;;0.40;0.40;;;25.30;42.20;;;;;;5029740;28;20197;-69
2022/03/24 13:48:36;;;;;;;0.60;0.60;;;25.70;40.70;;;;;;5031364;28;20586;-67
2022/03/24 13:51:24;;;;;;;1.70;1.70;;;26.30;39.00;;;;;;5029908;28;20205;-67
2022/03/24 13:54:20;;;;;;;1.23;1.23;;;26.60;39.10;;;;;;5031349;28;20267;-68
2022/03/24 13:57:23;;;;;;;0.40;0.40;;;27.00;37.90;;;;;;5027435;28;20202;-68
2022/03/24 14:00:11;;;;;;;0.40;0.40;;;27.30;38.30;;;;;;5026587;28;20194;-68
2022/03/24 14:03:12;;;;;;;0.40;0.40;;;28.10;37.90;;;;;;5027432;28;20226;-66
2022/03/24 14:06:00;;;;;;;0.40;0.40;;;29.40;37.20;;;;;;5029660;28;20277;-67
2022/03/24 14:08:49;;;;;;;2.08;1.88;;;29.90;35.70;;;;;;5027383;28;20211;-67
2022/03/24 14:11:37;;;;;;;1.20;1.10;;;29.40;34.00;;;;;;5029123;28;20757;-67
2022/03/24 14:14:26;;;;;;;0.90;0.90;;;29.00;34.50;;;;;;5026307;28;20198;-68
2022/03/24 14:17:13;;;;;;;0.70;0.60;;;28.90;35.00;;;;;;5030466;28;20332;-68
2022/03/24 14:20:01;;;;;;;1.70;1.60;;;28.70;34.10;;;;;;5030741;28;20202;-68
2022/03/24 14:22:52;;;;;;;1.00;1.00;;;28.60;33.90;;;;;;5027393;28;20222;-68
2022/03/24 14:25:46;;;;;;;0.60;0.60;;;28.70;34.50;;;;;;5030891;28;20206;-68
2022/03/24 14:28:35;;;;;;;0.57;0.57;;;29.40;34.10;;;;;;5033083;28;20193;-68
2022/03/24 14:31:29;;;;;;;0.50;0.50;;;30.70;33.50;;;;;;5035518;28;20198;-68
2022/03/24 14:34:17;;;;;;;0.40;0.40;;;31.40;32.30;;;;;;5032225;28;20679;-68
2022/03/24 14:37:11;;;;;;;0.50;0.50;;;31.70;31.70;;;;;;5027669;28;20205;-68
2022/03/24 14:39:58;;;;;;;5.20;4.97;;;31.80;31.30;;;;;;5029734;28;20199;-67
2022/03/24 14:42:45;;;;;;;0.40;0.40;;;31.10;31.40;;;;;;5030284;28;20222;-67
2022/03/24 14:45:33;;;;;;;1.77;1.67;;;29.70;32.50;;;;;;5028571;28;20213;-68
2022/03/24 14:48:22;;;;;;;0.50;0.50;;;28.50;33.00;;;;;;5030687;28;20727;-68
2022/03/24 14:51:09;;;;;;;0.40;0.40;;;27.60;33.70;;;;;;5029284;28;20202;-68